Latest Weather Observations for Laverton

IDV60901

Issued at 11:45 am EST Tuesday 2 September 2014 (issued every 10 minutes, with the page automatically refreshed every 10 minutes)

About weather observations | Map of Melbourne area stations | Latest observations for Melbourne area | Other Formats
Station Details ID: 087031 Name: LAVERTON RAAF Lat: -37.86 Lon: 144.76 Height: 20.1 m
Data from the previous 72 hours. | See also: Recent months at Laverton
Date/Time
EST
Tmp

°C
App
Tmp
°C
Dew
Point
°C
Rel
Hum
%
Delta-T

°C
Wind Press
QNH
hPa
Press
MSL
hPa
Rain
since
9 am
mm
Dir
 
Spd
km/h
Gust
km/h
Spd
kts
Gust
kts
02/11:30am 12.8 5.1 5.2 60 3.5 S 35 48 19 26 1019.2 1019.2 0.2
02/11:00am 13.1 6.1 5.8 61 3.4 S 32 46 17 25 1019.2 1019.2 0.2
02/10:30am 11.4 6.8 8.1 80 1.6 WSW 22 30 12 16 1019.1 1019.1 0.2
02/10:00am 11.3 6.2 7.8 79 1.7 WSW 24 30 13 16 1018.8 1018.8 0.2
02/09:30am 10.4 4.9 7.5 82 1.4 SW 26 39 14 21 1018.7 1018.7 0.0
02/09:00am 10.9 6.6 8.0 82 1.4 WSW 20 30 11 16 1018.3 1018.3 10.2
02/08:30am 9.7 5.2 7.1 84 1.2 WSW 20 28 11 15 1018.1 1018.1 10.2
02/08:00am 8.9 4.0 6.7 86 1.0 WSW 22 28 12 15 1017.7 1017.7 10.2
02/07:30am 8.3 4.6 6.3 87 0.9 W 15 20 8 11 1017.0 1017.0 10.0
02/07:00am 8.0 3.6 6.6 91 0.6 WSW 19 28 10 15 1017.0 1017.0 10.0
02/06:30am 7.7 3.3 6.6 93 0.5 W 19 30 10 16 1016.4 1016.4 10.0
02/06:00am 7.8 4.6 6.7 93 0.5 W 13 17 7 9 1015.9 1015.9 10.0
02/05:30am 8.4 4.9 7.3 93 0.5 WSW 15 22 8 12 1015.6 1015.6 10.0
02/05:00am 8.3 3.9 7.2 93 0.5 WSW 20 30 11 16 1015.2 1015.2 10.0
02/04:30am 8.2 3.7 7.0 92 0.6 WSW 20 32 11 17 1015.0 1015.0 9.6
02/04:00am 8.1 5.3 6.9 92 0.6 W 11 19 6 10 1014.5 1014.5 9.6
02/03:30am 8.1 4.9 6.9 92 0.6 WSW 13 19 7 10 1014.2 1014.2 9.6
02/03:00am 8.1 4.9 6.9 92 0.6 W 13 19 7 10 1014.2 1014.2 9.6
02/02:30am 8.6 5.1 7.4 92 0.6 W 15 19 8 10 1013.9 1013.9 9.6
02/02:00am 8.9 5.1 7.5 91 0.7 W 17 20 9 11 1013.9 1013.9 9.6
02/01:30am 8.5 5.0 7.1 91 0.7 WSW 15 19 8 10 1014.1 1014.1 9.6
02/01:00am 8.5 5.0 7.0 90 0.7 W 15 17 8 9 1013.7 1013.7 9.6
02/12:30am 8.0 4.7 6.5 90 0.7 W 13 17 7 9 1013.5 1013.5 9.6
02/12:00am 8.4 4.9 7.0 91 0.7 W 15 17 8 9 1013.5 1013.5 9.6
 
Date/Time
EST
Tmp

°C
App
Tmp
°C
Dew
Point
°C
Rel
Hum
%
Delta-T

°C
Wind Press
QNH
hPa
Press
MSL
hPa
Rain
since
9 am
mm
Dir
 
Spd
km/h
Gust
km/h
Spd
kts
Gust
kts
01/11:30pm 8.2 5.0 7.0 92 0.6 W 13 19 7 10 1013.1 1013.1 9.6
01/11:00pm 8.6 6.2 7.1 90 0.7 WNW 9 13 5 7 1013.0 1013.0 9.6
01/10:30pm 9.3 6.3 7.7 90 0.8 W 13 17 7 9 1012.8 1012.8 9.6
01/10:00pm 9.2 6.6 7.8 91 0.7 WNW 11 15 6 8 1012.8 1012.8 9.6
01/09:30pm 9.0 6.4 7.6 91 0.7 NW 11 13 6 7 1012.6 1012.6 9.6
01/09:00pm 9.1 6.5 7.7 91 0.7 NW 11 13 6 7 1012.5 1012.5 9.6
01/08:30pm 8.9 6.2 7.4 90 0.7 NW 11 15 6 8 1012.1 1012.1 9.6
01/08:00pm 8.7 6.3 7.2 90 0.7 NW 9 13 5 7 1011.9 1011.9 9.6
01/07:30pm 8.9 5.7 6.9 87 0.9 NW 13 17 7 9 1011.3 1011.4 9.6
01/07:00pm 9.6 6.5 7.2 85 1.1 W 13 19 7 10 1011.2 1011.3 9.6
01/06:30pm 9.3 6.3 7.6 89 0.8 WSW 13 19 7 10 1010.9 1011.0 9.4
01/06:00pm 10.3 8.4 9.1 92 0.6 NW 9 13 5 7 1010.5 1010.6 7.4
01/05:30pm 10.4 8.4 8.8 90 0.8 S 9 11 5 6 1010.1 1010.2 6.2
01/05:07pm 10.8 7.3 8.7 87 1.0 SSW 17 26 9 14 1009.9 1010.0 4.0
01/05:00pm 11.2 7.2 8.9 86 1.1 SSW 20 26 11 14 1009.7 1009.8 3.0
01/04:30pm 12.0 10.0 10.1 88 1.0 WNW 11 15 6 8 1009.1 1009.2 2.8
01/04:00pm 11.9 9.8 9.8 87 1.1 WNW 11 15 6 8 1008.8 1008.9 2.8
01/03:30pm 11.9 9.0 9.6 86 1.2 W 15 20 8 11 1008.7 1008.8 2.8
01/03:00pm 12.2 9.2 9.4 83 1.4 WNW 15 19 8 10 1008.6 1008.7 2.4
01/02:30pm 12.1 8.8 9.5 84 1.3 W 17 24 9 13 1008.4 1008.5 2.4
01/02:00pm 12.4 6.5 8.9 79 1.8 WSW 30 41 16 22 1008.3 1008.4 2.4
01/01:56pm 12.7 7.2 9.0 78 1.9 WSW 28 44 15 24 1008.3 1008.4 2.4
01/01:30pm 14.0 10.8 10.0 77 2.1 W 17 22 9 12 1008.4 1008.5 2.4
01/01:00pm 13.7 11.7 10.3 80 1.8 NW 11 15 6 8 1008.6 1008.7 2.4
01/12:30pm 13.6 11.2 10.2 80 1.8 NNW 13 19 7 10 1008.5 1008.6 2.4
01/12:00pm 13.1 10.6 9.7 80 1.7 N 13 20 7 11 1008.7 1008.8 2.4
01/11:30am 12.2 10.0 9.4 83 1.4 N 11 17 6 9 1008.5 1008.6 2.4
01/11:15am 11.9 9.2 9.1 83 1.4 N 13 17 7 9 1008.7 1008.8 2.4
01/11:00am 11.8 8.6 8.6 81 1.6 NNW 15 19 8 10 1009.1 1009.2 2.2
01/10:36am 12.7 9.6 7.2 69 2.7 NNW 13 20 7 11 1009.1 1009.2 0.6
01/10:30am 13.4 9.9 7.0 65 3.1 NNW 15 22 8 12 1009.1 1009.2 0.0
01/10:00am 14.6 11.6 5.9 56 4.2 NNW 11 17 6 9 1008.9 1009.0 0.0
01/09:30am 14.3 9.5 5.7 56 4.1 NNW 20 28 11 15 1009.5 1009.6 0.0
01/09:00am 14.1 8.8 5.2 55 4.2 NNW 22 32 12 17 1009.1 1009.2 0.0
01/08:30am 14.0 10.0 5.1 55 4.2 N 15 22 8 12 1008.7 1008.8 0.0
01/08:00am 13.8 8.5 5.2 56 4.0 NNW 22 32 12 17 1008.9 1009.0 0.0
01/07:30am 14.2 8.1 4.8 53 4.4 N 26 41 14 22 1008.3 1008.4 0.0
01/07:00am 14.4 7.9 4.7 52 4.5 N 28 41 15 22 1007.7 1007.8 0.0
01/06:30am 14.8 7.8 4.2 49 4.9 N 30 41 16 22 1007.7 1007.8 0.0
01/06:00am 14.6 8.5 4.6 51 4.7 N 26 35 14 19 1008.2 1008.3 0.0
01/05:30am 14.3 9.0 4.9 53 4.4 N 22 35 12 19 1008.3 1008.4 0.0
01/05:00am 14.6 8.2 5.1 53 4.5 N 28 41 15 22 1008.2 1008.3 0.0
01/04:37am 14.9 8.1 5.1 52 4.6 N 30 50 16 27 1007.8 1007.9 0.0
01/04:30am 14.9 8.8 4.9 51 4.7 N 26 39 14 21 1007.9 1008.0 0.0
01/04:01am 15.2 7.8 4.9 50 4.8 N 33 52 18 28 1007.4 1007.5 0.0
01/04:00am 15.2 7.4 4.9 50 4.9 N 35 52 19 28 1007.4 1007.5 0.0
01/03:30am 15.3 7.6 5.2 51 4.8 N 35 54 19 29 1007.7 1007.8 0.0
01/03:00am 15.5 8.1 5.1 50 4.9 N 33 54 18 29 1008.3 1008.4 0.0
01/02:47am 15.6 8.2 5.2 50 4.9 N 33 52 18 28 1008.5 1008.6 0.0
01/02:30am 15.6 8.4 5.2 50 4.9 N 32 46 17 25 1008.7 1008.8 0.0
01/02:00am 16.1 7.7 5.4 49 5.1 N 39 59 21 32 1008.9 1009.0 0.0
01/01:30am 16.6 8.1 5.3 47 5.4 N 39 57 21 31 1009.2 1009.3 0.0
01/01:00am 17.1 8.2 5.1 45 5.8 N 41 63 22 34 1009.5 1009.6 0.0
01/12:40am 17.3 10.2 5.3 45 5.8 N 32 56 17 30 1009.9 1010.0 0.0
01/12:30am 17.2 10.9 5.5 46 5.7 N 28 44 15 24 1010.0 1010.1 0.0
01/12:00am 17.1 10.1 6.0 48 5.4 N 32 50 17 27 1010.0 1010.1 0.0
 
Date/Time
EST
Tmp

°C
App
Tmp
°C
Dew
Point
°C
Rel
Hum
%
Delta-T

°C
Wind Press
QNH
hPa
Press
MSL
hPa
Rain
since
9 am
mm
Dir
 
Spd
km/h
Gust
km/h
Spd
kts
Gust
kts
31/11:35pm 17.2 11.0 6.1 48 5.4 N 28 48 15 26 1010.1 1010.2 0.0
31/11:30pm 17.0 11.2 6.2 49 5.3 N 26 43 14 23 1010.1 1010.2 0.0
31/11:02pm 16.9 10.0 6.4 50 5.2 N 32 50 17 27 1009.9 1010.0 0.0
31/11:00pm 16.9 9.9 6.7 51 5.0 NNE 33 50 18 27 1009.9 1010.0 0.0
31/10:48pm 16.9 10.1 6.7 51 5.0 NNE 32 52 17 28 1010.0 1010.1 0.0
31/10:30pm 16.9 9.9 6.7 51 5.0 NNE 33 50 18 27 1010.5 1010.6 0.0
31/10:17pm 17.0 10.2 6.8 51 5.1 NNE 32 50 17 27 1010.3 1010.4 0.0
31/10:00pm 16.9 11.0 7.3 53 4.8 NNE 28 41 15 22 1011.0 1011.1 0.0
31/09:30pm 16.8 11.8 8.0 56 4.5 N 24 33 13 18 1012.2 1012.2 0.0
31/09:00pm 16.3 12.7 8.3 59 4.1 NNE 17 24 9 13 1012.6 1012.6 0.0
31/08:30pm 16.5 12.5 8.2 58 4.2 NNE 19 26 10 14 1012.7 1012.7 0.0
31/08:00pm 16.8 12.7 8.0 56 4.5 NNE 19 24 10 13 1012.9 1012.9 0.0
31/07:30pm 16.9 12.3 8.1 56 4.5 NNE 22 32 12 17 1012.9 1012.9 0.0
31/07:00pm 17.2 12.6 8.1 55 4.6 NNE 22 30 12 16 1013.0 1013.0 0.0
31/06:30pm 17.6 13.0 8.2 54 4.8 NNE 22 32 12 17 1013.0 1013.0 0.0
31/06:00pm 17.6 13.0 8.2 54 4.8 NNE 22 30 12 16 1013.4 1013.4 0.0
31/05:30pm 18.0 13.4 8.0 52 5.1 NNE 22 32 12 17 1013.6 1013.6 0.0
31/05:00pm 18.4 13.0 7.8 50 5.4 N 26 41 14 22 1013.7 1013.7 0.0
31/04:30pm 18.8 13.3 7.6 48 5.7 N 26 39 14 21 1013.5 1013.5 0.0
31/04:00pm 19.1 13.2 7.5 47 5.9 NNE 28 37 15 20 1013.4 1013.4 0.0
31/03:30pm 20.4 14.5 7.7 44 6.5 N 28 43 15 23 1013.6 1013.6 0.0
31/03:00pm 20.0 13.9 6.4 41 6.8 N 28 43 15 23 1013.8 1013.8 0.0
31/02:30pm 22.1 16.6 5.9 35 8.2 N 24 37 13 20 1014.3 1014.3 0.0
31/02:00pm 21.5 14.8 5.8 36 7.9 NNW 30 39 16 21 1014.6 1014.6 0.0
31/01:30pm 21.6 14.5 5.5 35 8.0 NNW 32 44 17 24 1014.8 1014.8 0.0
31/01:07pm 22.1 15.3 5.1 33 8.4 NNW 30 48 16 26 1015.1 1015.1 0.0
31/01:00pm 22.1 15.3 5.1 33 8.4 NNW 30 43 16 23 1015.3 1015.3 0.0
31/12:30pm 22.0 14.2 5.0 33 8.4 NNW 35 50 19 27 1015.6 1015.6 0.0
31/12:00pm 21.8 14.4 4.8 33 8.4 NNW 33 46 18 25 1016.1 1016.1 0.0
31/11:30am 21.8 14.6 4.8 33 8.4 NNW 32 44 17 24 1016.5 1016.5 0.0
31/11:00am 21.1 14.2 4.6 34 8.0 N 30 43 16 23 1016.9 1016.9 0.0
31/10:30am 20.4 13.9 4.8 36 7.6 N 28 44 15 24 1017.0 1017.0 0.0
31/10:17am 20.1 13.7 5.4 38 7.2 N 28 46 15 25 1017.4 1017.4 0.0
31/10:00am 19.5 15.3 5.6 40 6.8 N 17 33 9 18 1017.6 1017.6 0.0
31/09:30am 17.3 13.0 7.1 51 5.1 N 19 30 10 16 1018.1 1018.1 0.0
31/09:00am 16.1 12.4 7.8 58 4.2 N 17 22 9 12 1018.5 1018.5 0.2
31/08:30am 14.5 10.8 8.0 65 3.2 N 17 30 9 16 1018.6 1018.6 0.2
31/08:00am 13.2 9.5 8.1 71 2.5 NNE 17 22 9 12 1018.6 1018.6 0.2
31/07:30am 12.3 8.6 8.0 75 2.1 NNE 17 24 9 13 1018.8 1018.8 0.2
31/07:00am 11.2 7.8 7.7 79 1.7 NNE 15 20 8 11 1018.9 1018.9 0.2
31/06:30am 10.5 7.4 7.2 80 1.6 N 13 19 7 10 1018.6 1018.6 0.2
31/06:00am 10.8 7.3 7.1 78 1.8 N 15 20 8 11 1018.6 1018.6 0.2
31/05:30am 10.4 7.3 7.3 81 1.5 NNE 13 17 7 9 1018.4 1018.4 0.2
31/05:00am 10.1 7.4 7.2 82 1.4 NNE 11 15 6 8 1018.3 1018.3 0.2
31/04:30am 10.0 6.9 7.1 82 1.4 NNE 13 17 7 9 1018.3 1018.3 0.2
31/04:00am 10.0 7.3 7.3 83 1.3 N 11 13 6 7 1018.6 1018.6 0.2
31/03:30am 9.5 7.1 6.8 83 1.3 N 9 13 5 7 1018.7 1018.7 0.2
31/03:00am 9.6 7.5 6.7 82 1.4 N 7 9 4 5 1018.7 1018.7 0.2
31/02:30am 10.6 8.2 7.1 79 1.7 N 9 13 5 7 1018.9 1018.9 0.2
31/02:00am 10.4 8.0 6.9 79 1.6 N 9 13 5 7 1019.3 1019.3 0.2
31/01:30am 10.4 8.0 6.9 79 1.7 N 9 13 5 7 1019.6 1019.6 0.2
31/01:00am 10.2 7.8 6.9 80 1.6 N 9 11 5 6 1019.8 1019.8 0.2
31/12:30am 10.3 7.8 6.6 78 1.7 N 9 13 5 7 1020.2 1020.2 0.2
31/12:00am 10.7 7.9 6.8 77 1.8 N 11 13 6 7 1020.2 1020.2 0.2
 
Date/Time
EST
Tmp

°C
App
Tmp
°C
Dew
Point
°C
Rel
Hum
%
Delta-T

°C
Wind Press
QNH
hPa
Press
MSL
hPa
Rain
since
9 am
mm
Dir
 
Spd
km/h
Gust
km/h
Spd
kts
Gust
kts
30/11:30pm 10.7 7.9 7.0 78 1.8 NNE 11 13 6 7 1020.4 1020.4 0.2
30/11:00pm 10.8 8.0 6.9 77 1.8 NNE 11 13 6 7 1020.8 1020.8 0.2
30/10:30pm 11.3 8.6 7.4 77 1.9 NNE 11 13 6 7 1021.1 1021.1 0.2
30/10:00pm 11.9 9.6 7.6 75 2.1 N 9 13 5 7 1021.6 1021.6 0.2
30/09:30pm 12.3 9.7 7.6 73 2.3 N 11 13 6 7 1021.7 1021.7 0.2
30/09:00pm 12.9 10.3 7.6 70 2.6 N 11 13 6 7 1021.7 1021.7 0.2
30/08:30pm 13.8 10.8 7.8 67 3.0 NNW 13 15 7 8 1021.6 1021.6 0.2
30/08:00pm 13.6 10.7 8.0 69 2.8 NNW 13 17 7 9 1021.4 1021.4 0.2
30/07:30pm 12.8 10.4 7.0 68 2.8 NNW 9 13 5 7 1021.4 1021.4 0.2
30/07:00pm 15.8 13.1 7.3 57 4.2 N 11 13 6 7 1021.1 1021.1 0.2
30/06:30pm 16.3 14.0 7.5 56 4.4 NNE 9 13 5 7 1021.1 1021.1 0.2
30/06:00pm 16.5 15.3 9.4 63 3.7 SW 6 7 3 4 1021.2 1021.2 0.2
30/05:30pm 17.9 17.1 9.5 58 4.4 SW 4 7 2 4 1021.2 1021.2 0.2
30/05:00pm 19.5 18.0 8.5 49 5.7 NNW 6 11 3 6 1021.1 1021.1 0.2
30/04:30pm 19.1 18.4 9.9 55 4.9 ESE 4 11 2 6 1021.1 1021.1 0.2
30/04:00pm 19.0 17.7 10.0 56 4.8 E 7 11 4 6 1021.0 1021.0 0.2
30/03:30pm 20.4 18.2 9.3 49 5.9 NE 11 20 6 11 1021.1 1021.1 0.2
30/03:00pm 18.6 17.1 10.4 59 4.4 SE 9 13 5 7 1021.4 1021.4 0.2
30/02:30pm 18.2 15.9 10.6 61 4.1 SE 13 19 7 10 1021.6 1021.6 0.2
30/02:00pm 17.8 15.6 10.7 63 3.8 SE 13 15 7 8 1022.0 1022.0 0.2
30/01:30pm 17.8 16.0 10.7 63 3.8 E 11 17 6 9 1022.3 1022.3 0.2
30/01:00pm 17.2 15.0 10.8 66 3.4 SE 13 19 7 10 1022.9 1022.9 0.0
30/12:30pm 16.8 14.5 10.6 67 3.3 SSE 13 17 7 9 1023.4 1023.4 0.0
30/12:00pm 16.0 14.0 10.3 69 3.0 SE 11 17 6 9 1023.9 1023.9 0.0

Latest Capital City Observations: Canberra | Sydney | Melbourne | Brisbane | Adelaide | Perth | Hobart | Darwin

Other Formats:

Comma delimited format used in spreadsheet applications
http://www.bom.gov.au/fwo/IDV60901/IDV60901.94865.axf

JavaScript Object Notation format (JSON) in row-major order
http://www.bom.gov.au/fwo/IDV60901/IDV60901.94865.json